Time;durP1;ratioP1;P1;durP2;ratioP2;P2;SDS_P1;SDS_P2;PMS_P1;PMS_P2;Temp;Humidity;BMP_temperature;BMP_pressure;BME280_temperature;BME280_humidity;BME280_pressure;Samples;Min_cycle;Max_cycle;Signal;HPM_P1;HPM_P2
2023/02/19 00:01:43;;;;;;;4.20;3.70;;;;;;;8.87;100.00;98709.03;5054717;28;20206;-76
2023/02/19 00:04:13;;;;;;;5.83;4.23;;;;;;;8.83;100.00;98699.59;5054624;28;20751;-77
2023/02/19 00:06:40;;;;;;;5.47;3.93;;;;;;;8.85;100.00;98702.97;5054487;28;20229;-77
2023/02/19 00:09:07;;;;;;;4.17;3.73;;;;;;;8.85;100.00;98698.56;5054739;28;20212;-77
2023/02/19 00:11:34;;;;;;;4.30;3.47;;;;;;;8.83;100.00;98699.59;5054682;28;20216;-77
2023/02/19 00:14:02;;;;;;;4.30;3.73;;;;;;;8.87;100.00;98693.22;5054316;28;20239;-77
2023/02/19 00:16:32;;;;;;;4.97;3.93;;;;;;;8.86;100.00;98689.72;5054389;28;20207;-77
2023/02/19 00:19:01;;;;;;;5.73;4.20;;;;;;;8.87;100.00;98693.22;5054355;28;20219;-76
2023/02/19 00:21:28;;;;;;;5.63;4.50;;;;;;;8.88;100.00;98689.66;5054481;28;20215;-77
2023/02/19 00:23:56;;;;;;;6.23;4.97;;;;;;;8.89;100.00;98696.63;5068585;22;20245;-78
2023/02/19 00:26:23;;;;;;;5.87;4.70;;;;;;;8.93;100.00;98698.19;5053811;28;20231;-78
2023/02/19 00:28:51;;;;;;;5.53;4.63;;;;;;;8.94;100.00;98691.97;5054467;28;20247;-78
2023/02/19 00:31:20;;;;;;;5.63;5.10;;;;;;;8.94;100.00;98694.59;5054745;28;20672;-78
2023/02/19 00:33:50;;;;;;;6.17;4.93;;;;;;;8.94;100.00;98684.06;5054193;28;20595;-78
2023/02/19 00:36:17;;;;;;;6.27;4.77;;;;;;;8.95;100.00;98693.66;5054376;28;20210;-78
2023/02/19 00:38:45;;;;;;;6.37;5.10;;;;;;;8.94;100.00;98697.25;5054686;28;20211;-78
2023/02/19 00:41:19;;;;;;;5.77;4.93;;;;;;;8.93;100.00;98700.81;5055324;28;20478;-78
2023/02/19 00:43:47;;;;;;;6.13;5.10;;;;;;;8.95;100.00;98704.22;5057236;28;20244;-78
2023/02/19 00:46:14;;;;;;;6.00;4.70;;;;;;;8.91;100.00;98700.03;5057467;28;20227;-79
2023/02/19 00:48:41;;;;;;;5.60;4.80;;;;;;;8.99;100.00;98703.94;5058270;28;20217;-78
2023/02/19 00:51:08;;;;;;;5.30;4.40;;;;;;;8.96;100.00;98698.00;5056988;28;20214;-78
2023/02/19 00:53:35;;;;;;;6.43;4.83;;;;;;;8.94;100.00;98694.59;5059474;28;20229;-78
2023/02/19 00:56:01;;;;;;;6.70;4.90;;;;;;;8.94;100.00;98694.59;5054389;28;20211;-78
2023/02/19 00:58:28;;;;;;;4.87;4.30;;;;;;;8.94;100.00;98684.06;5053852;28;20213;-78
2023/02/19 01:00:55;;;;;;;5.97;5.00;;;;;;;8.91;100.00;98681.56;5053580;28;20208;-77
2023/02/19 01:03:22;;;;;;;5.37;4.40;;;;;;;8.96;100.00;98679.53;5053709;28;20228;-77
2023/02/19 01:05:48;;;;;;;5.10;4.60;;;;;;;8.94;100.00;98678.78;5053434;28;20709;-77
2023/02/19 01:08:17;;;;;;;5.23;4.57;;;;;;;8.93;100.00;98677.09;5052691;28;20224;-77
2023/02/19 01:10:43;;;;;;;5.07;4.50;;;;;;;8.93;100.00;98670.00;5053415;28;20215;-77
2023/02/19 01:13:10;;;;;;;5.23;4.50;;;;;;;8.95;100.00;98664.66;5053357;28;20234;-77
2023/02/19 01:15:37;;;;;;;5.50;4.90;;;;;;;8.94;100.00;98660.31;5053380;28;20213;-78
2023/02/19 01:18:03;;;;;;;5.10;4.60;;;;;;;9.00;100.00;98660.00;5053213;28;20208;-77
2023/02/19 01:20:30;;;;;;;6.43;4.93;;;;;;;8.94;100.00;98662.97;5053320;28;20207;-77
2023/02/19 01:22:56;;;;;;;5.07;4.43;;;;;;;8.93;100.00;98669.19;5053345;28;20242;-77
2023/02/19 01:25:24;;;;;;;4.60;4.10;;;;;;;8.97;100.00;98663.66;5053388;28;20207;-77
2023/02/19 01:27:51;;;;;;;5.00;4.50;;;;;;;8.98;100.00;98660.06;5053089;28;20220;-78
2023/02/19 01:30:17;;;;;;;5.17;4.27;;;;;;;8.96;100.00;98658.44;5053437;28;20222;-77
2023/02/19 01:32:44;;;;;;;6.27;4.47;;;;;;;8.97;100.00;98655.75;5053089;28;20744;-78
2023/02/19 01:35:10;;;;;;;5.37;4.60;;;;;;;8.97;100.00;98654.88;5053115;28;20303;-78
2023/02/19 01:37:37;;;;;;;5.90;4.57;;;;;;;9.02;100.00;98647.56;5052770;28;20207;-78
2023/02/19 01:40:04;;;;;;;5.20;4.70;;;;;;;9.01;100.00;98649.34;5053013;28;20693;-78
2023/02/19 01:42:31;;;;;;;6.93;4.90;;;;;;;8.99;100.00;98642.47;5052835;28;20675;-78
2023/02/19 01:45:27;;;;;;;6.10;4.70;;;;;;;9.01;100.00;98651.16;5052936;28;20293;-78
2023/02/19 01:47:59;;;;;;;6.20;4.80;;;;;;;9.00;100.00;98646.81;5052508;28;20299;-78
2023/02/19 01:50:29;;;;;;;5.47;4.77;;;;;;;8.99;100.00;98645.13;5052963;28;20226;-78
2023/02/19 01:52:56;;;;;;;7.10;4.90;;;;;;;9.01;100.00;98648.50;5052528;28;20241;-78
2023/02/19 01:55:23;;;;;;;6.57;4.50;;;;;;;9.02;100.00;98639.66;5052779;28;20219;-78
2023/02/19 01:57:55;;;;;;;7.17;5.20;;;;;;;9.02;100.00;98639.66;5052350;28;20218;-78
2023/02/19 02:00:24;;;;;;;4.90;4.40;;;;;;;9.03;100.00;98636.09;5051521;28;20214;-78
2023/02/19 02:02:54;;;;;;;5.10;4.60;;;;;;;9.05;100.00;98644.78;5052487;28;20283;-78
2023/02/19 02:05:37;;;;;;;5.57;4.77;;;;;;;9.02;100.00;98651.06;5052647;28;20567;-78
2023/02/19 02:10:48;;;;;;;5.40;4.77;;;;;;;9.01;100.00;98648.50;5052468;28;20207;-78
2023/02/19 02:13:16;;;;;;;4.70;4.13;;;;;;;8.96;100.00;98640.00;5052254;28;20221;-78
2023/02/19 02:15:51;;;;;;;5.27;4.27;;;;;;;8.95;100.00;98643.56;5052218;28;20211;-78
2023/02/19 02:18:31;;;;;;;5.93;4.70;;;;;;;9.00;100.00;98637.09;5052164;28;20210;-78
2023/02/19 02:21:22;;;;;;;5.17;4.43;;;;;;;8.95;100.00;98630.38;5052110;28;20681;-78
2023/02/19 02:24:07;;;;;;;5.13;4.20;;;;;;;8.95;100.00;98622.47;5052046;28;20251;-78
2023/02/19 02:26:51;;;;;;;4.80;4.30;;;;;;;8.88;100.00;98621.13;5051894;28;20235;-78
2023/02/19 02:30:04;;;;;;;4.63;4.20;;;;;;;8.87;100.00;98611.53;5052164;28;20697;-78
2023/02/19 02:32:38;;;;;;;5.77;4.50;;;;;;;8.85;100.00;98597.56;5052193;28;20206;-78
2023/02/19 02:35:09;;;;;;;5.70;4.53;;;;;;;8.83;100.00;98607.34;5052314;28;20225;-78
2023/02/19 02:37:39;;;;;;;5.27;4.40;;;;;;;8.83;100.00;98602.06;5051842;28;20208;-78
2023/02/19 02:40:08;;;;;;;6.20;4.60;;;;;;;8.83;100.00;98596.78;5051719;28;20221;-78
2023/02/19 02:42:34;;;;;;;5.33;4.40;;;;;;;8.82;100.00;98600.38;5051955;28;20211;-78
2023/02/19 02:45:35;;;;;;;4.90;4.23;;;;;;;8.77;100.00;98598.00;5051941;28;20211;-78
2023/02/19 02:48:27;;;;;;;5.53;4.30;;;;;;;8.74;100.00;98594.66;5051532;28;20308;-78
2023/02/19 02:50:58;;;;;;;5.37;3.80;;;;;;;8.81;100.00;98603.94;5049739;28;20215;-78
2023/02/19 02:56:18;;;;;;;5.53;4.10;;;;;;;8.79;100.00;98606.66;5051414;28;20204;-78
2023/02/19 02:58:47;;;;;;;4.70;4.17;;;;;;;8.78;100.00;98604.09;5051589;28;20226;-78
2023/02/19 03:04:07;;;;;;;5.10;4.23;;;;;;;8.77;100.00;98597.13;5051862;28;20277;-78
2023/02/19 03:06:36;;;;;;;6.97;4.40;;;;;;;8.76;100.00;98596.25;5051331;28;20278;-78
2023/02/19 03:09:10;;;;;;;5.40;4.07;;;;;;;8.78;100.00;98601.47;5051435;28;20211;-78
2023/02/19 03:20:09;;;;;;;4.80;4.30;;;;;;;8.69;100.00;98586.16;5051371;28;20212;-78
2023/02/19 03:22:37;;;;;;;6.20;4.33;;;;;;;8.70;100.00;98585.22;5051151;28;20256;-78
2023/02/19 03:27:57;;;;;;;4.60;4.17;;;;;;;8.71;100.00;98586.94;5050889;28;20556;-78
2023/02/19 03:30:28;;;;;;;4.83;4.27;;;;;;;8.66;100.00;98578.41;5051150;28;20213;-78
2023/02/19 03:33:00;;;;;;;4.23;3.80;;;;;;;8.69;100.00;98583.53;5050715;28;20249;-78
2023/02/19 03:35:31;;;;;;;5.13;4.40;;;;;;;8.64;100.00;98581.13;5051050;28;20214;-78
2023/02/19 03:38:03;;;;;;;5.00;4.20;;;;;;;8.65;100.00;98582.84;5051175;28;20216;-78
2023/02/19 03:40:34;;;;;;;4.43;3.97;;;;;;;8.64;100.00;98585.56;5051360;28;20192;-78
2023/02/19 03:43:06;;;;;;;4.30;3.90;;;;;;;8.61;100.00;98583.06;5050958;28;20295;-78
2023/02/19 03:45:48;;;;;;;4.17;3.77;;;;;;;8.64;100.00;98585.56;5051228;28;20215;-78
2023/02/19 03:48:24;;;;;;;6.80;4.47;;;;;;;8.63;100.00;98587.34;5050809;28;20205;-78
2023/02/19 03:51:01;;;;;;;4.60;4.20;;;;;;;8.60;100.00;98586.66;5050847;28;20209;-78
2023/02/19 03:53:36;;;;;;;5.57;3.67;;;;;;;8.65;100.00;98592.53;5050852;28;20233;-78
2023/02/19 03:56:10;;;;;;;4.33;3.93;;;;;;;8.60;100.00;98597.19;5050836;28;20217;-78
2023/02/19 03:58:44;;;;;;;4.23;3.60;;;;;;;8.60;100.00;98594.56;5050690;28;20676;-78
2023/02/19 04:01:16;;;;;;;3.63;3.27;;;;;;;8.63;100.00;98602.31;5050796;28;20234;-78
2023/02/19 04:03:48;;;;;;;4.27;3.43;;;;;;;8.65;100.00;98593.38;5051063;28;20228;-78
2023/02/19 04:06:22;;;;;;;5.17;3.40;;;;;;;8.64;100.00;98596.09;5050723;28;20228;-78
2023/02/19 04:08:52;;;;;;;4.20;3.30;;;;;;;8.61;100.00;98601.53;5050796;28;20209;-78
2023/02/19 04:11:22;;;;;;;4.10;3.70;;;;;;;8.59;100.00;98608.66;5050737;28;20618;-78
2023/02/19 04:13:54;;;;;;;3.73;2.97;;;;;;;8.56;100.00;98608.84;5050570;28;20235;-78
2023/02/19 04:16:24;;;;;;;4.00;3.37;;;;;;;8.56;100.00;98607.03;5050524;28;20214;-78
2023/02/19 04:18:54;;;;;;;5.10;3.13;;;;;;;8.63;100.00;98618.13;5050830;28;20221;-78
2023/02/19 04:21:23;;;;;;;4.50;2.93;;;;;;;8.62;100.00;98617.25;5050738;28;20283;-78
2023/02/19 04:23:50;;;;;;;3.70;2.63;;;;;;;8.61;100.00;98618.19;5050445;28;20237;-78
2023/02/19 04:26:19;;;;;;;3.17;2.37;;;;;;;8.61;100.00;98617.31;5050207;28;20266;-78
2023/02/19 04:28:46;;;;;;;3.20;2.57;;;;;;;8.59;100.00;98624.47;5050889;28;20215;-78
2023/02/19 04:31:13;;;;;;;4.47;2.57;;;;;;;8.61;100.00;98627.88;5050782;28;20208;-78
2023/02/19 04:33:39;;;;;;;2.53;2.20;;;;;;;8.61;100.00;98630.50;5050641;28;20240;-78
2023/02/19 04:36:09;;;;;;;2.47;2.00;;;;;;;8.64;100.00;98638.25;5050471;28;20217;-78
2023/02/19 04:38:37;;;;;;;0.90;0.90;;;;;;;8.60;100.00;98636.72;5050635;28;20586;-78
2023/02/19 04:41:04;;;;;;;1.00;0.93;;;;;;;8.59;100.00;98642.91;5050588;28;20222;-78
2023/02/19 04:43:30;;;;;;;0.50;0.50;;;;;;;8.54;100.00;98648.44;5050582;28;20335;-78
2023/02/19 04:46:00;;;;;;;0.70;0.50;;;;;;;8.52;100.00;98654.72;5054156;28;20224;-78
2023/02/19 04:48:26;;;;;;;1.10;0.57;;;;;;;8.53;100.00;98651.16;5053751;28;20614;-78
2023/02/19 04:50:52;;;;;;;0.77;0.77;;;;;;;8.49;100.00;98662.75;5053986;28;20215;-78
2023/02/19 04:53:19;;;;;;;0.50;0.50;;;;;;;8.50;100.00;98661.84;5053707;28;20230;-78
2023/02/19 04:55:47;;;;;;;0.40;0.40;;;;;;;8.47;100.00;98662.00;5053815;28;20215;-78
2023/02/19 04:58:14;;;;;;;0.63;0.50;;;;;;;8.44;100.00;98680.63;5053754;28;20207;-78
2023/02/19 05:00:40;;;;;;;0.53;0.50;;;;;;;8.47;100.00;98677.81;5053855;28;20237;-78
2023/02/19 05:03:07;;;;;;;0.50;0.50;;;;;;;8.45;100.00;98677.88;5053792;28;20245;-78
2023/02/19 05:05:34;;;;;;;0.60;0.60;;;;;;;8.46;100.00;98676.09;5053770;28;20304;-78
2023/02/19 05:08:01;;;;;;;0.60;0.60;;;;;;;8.40;100.00;98681.69;5053261;28;20253;-78
2023/02/19 05:10:27;;;;;;;0.60;0.60;;;;;;;8.38;100.00;98688.84;5053861;28;20215;-78
2023/02/19 05:12:56;;;;;;;0.60;0.60;;;;;;;8.38;100.00;98691.47;5053523;28;20229;-78
2023/02/19 05:15:24;;;;;;;0.73;0.73;;;;;;;8.36;100.00;98690.69;5053566;28;20214;-77
2023/02/19 05:17:51;;;;;;;1.37;0.70;;;;;;;8.35;100.00;98691.63;5053202;28;20231;-78
2023/02/19 05:20:17;;;;;;;0.97;0.70;;;;;;;8.33;100.00;98690.84;5053360;28;20212;-78
2023/02/19 05:22:44;;;;;;;1.07;0.73;;;;;;;8.34;100.00;98692.56;5053285;28;20715;-78
2023/02/19 05:25:10;;;;;;;0.60;0.60;;;;;;;8.37;100.00;98677.44;5053348;28;20213;-77
2023/02/19 05:27:37;;;;;;;0.67;0.67;;;;;;;8.37;100.00;98677.44;5052797;28;20232;-78
2023/02/19 05:30:05;;;;;;;0.80;0.80;;;;;;;8.32;100.00;98683.88;5053208;28;20647;-78
2023/02/19 05:32:34;;;;;;;0.60;0.60;;;;;;;8.31;100.00;98683.03;5052964;28;20659;-78
2023/02/19 05:35:00;;;;;;;0.67;0.57;;;;;;;8.26;100.00;98685.03;5053019;28;20212;-78
2023/02/19 05:37:27;;;;;;;0.70;0.70;;;;;;;8.31;100.00;98692.69;5052914;28;20218;-78
2023/02/19 05:39:53;;;;;;;0.67;0.67;;;;;;;8.30;100.00;98691.84;5053114;28;20209;-78
2023/02/19 05:42:20;;;;;;;0.60;0.60;;;;;;;8.30;100.00;98685.72;5053187;28;20209;-78
2023/02/19 05:44:46;;;;;;;0.60;0.60;;;;;;;8.30;100.00;98706.78;5052897;28;20250;-78
2023/02/19 05:47:14;;;;;;;0.43;0.43;;;;;;;8.29;100.00;98694.56;5052520;28;20235;-78
2023/02/19 05:49:41;;;;;;;0.50;0.50;;;;;;;8.24;100.00;98704.47;5052727;28;20212;-78
2023/02/19 05:52:07;;;;;;;0.50;0.50;;;;;;;8.25;100.00;98698.25;5052958;28;20223;-78
2023/02/19 05:54:33;;;;;;;0.70;0.60;;;;;;;8.25;100.00;98699.13;5052509;28;20237;-78
2023/02/19 05:57:00;;;;;;;0.43;0.43;;;;;;;8.27;100.00;98701.69;5052291;28;20682;-78
2023/02/19 05:59:27;;;;;;;0.43;0.43;;;;;;;8.29;100.00;98710.34;5052848;28;20233;-78
2023/02/19 06:01:55;;;;;;;0.50;0.50;;;;;;;8.27;100.00;98696.44;5052497;28;20216;-78
2023/02/19 06:04:22;;;;;;;0.50;0.50;;;;;;;8.29;100.00;98705.09;5052729;28;20622;-78
2023/02/19 06:06:49;;;;;;;0.50;0.50;;;;;;;8.26;100.00;98702.63;5052412;28;20299;-78
2023/02/19 06:09:16;;;;;;;0.80;0.50;;;;;;;8.26;100.00;98695.56;5052724;28;20591;-78
2023/02/19 06:11:43;;;;;;;0.57;0.53;;;;;;;8.30;100.00;98698.88;5052559;28;20211;-78
2023/02/19 06:14:12;;;;;;;0.40;0.40;;;;;;;8.29;100.00;98707.72;5052358;28;20230;-78
2023/02/19 06:16:38;;;;;;;0.50;0.50;;;;;;;8.29;100.00;98710.34;5051966;28;20372;-78
2023/02/19 06:19:08;;;;;;;1.53;0.60;;;;;;;8.29;100.00;98723.53;5052498;28;20234;-77
2023/02/19 06:21:36;;;;;;;2.40;0.80;;;;;;;8.32;100.00;98710.22;5052398;28;20208;-78
2023/02/19 06:24:07;;;;;;;0.83;0.60;;;;;;;8.30;100.00;98704.16;5067232;22;20240;-81
2023/02/19 06:26:33;;;;;;;0.80;0.80;;;;;;;8.32;100.00;98700.53;5051417;28;20214;-81
2023/02/19 06:29:00;;;;;;;0.60;0.60;;;;;;;8.31;100.00;98712.00;5052160;28;20201;-80
2023/02/19 06:31:26;;;;;;;0.60;0.60;;;;;;;8.33;100.00;98717.19;5051646;28;20208;-81
2023/02/19 06:33:53;;;;;;;1.27;0.80;;;;;;;8.31;100.00;98716.38;5052002;28;20232;-80
2023/02/19 06:36:21;;;;;;;0.60;0.60;;;;;;;8.31;100.00;98719.03;5051969;28;20616;-81
2023/02/19 06:38:49;;;;;;;1.30;0.63;;;;;;;8.34;100.00;98719.72;5052134;28;20216;-81
2023/02/19 06:41:16;;;;;;;0.70;0.70;;;;;;;8.35;100.00;98721.44;5052048;28;20217;-80
2023/02/19 06:43:43;;;;;;;0.70;0.70;;;;;;;8.32;100.00;98734.75;5051871;28;20239;-81
2023/02/19 06:46:12;;;;;;;1.47;0.60;;;;;;;8.36;100.00;98749.50;5051504;28;20692;-80
2023/02/19 06:48:39;;;;;;;0.60;0.60;;;;;;;8.36;100.00;98753.88;5051932;28;20594;-81
2023/02/19 06:51:06;;;;;;;0.70;0.70;;;;;;;8.41;100.00;98747.47;5051886;28;20207;-80
2023/02/19 06:53:32;;;;;;;0.70;0.70;;;;;;;8.43;100.00;98744.75;5051797;28;20235;-83
2023/02/19 06:56:03;;;;;;;1.70;1.00;;;;;;;8.45;100.00;98745.53;5051834;28;20230;-82
2023/02/19 06:58:29;;;;;;;1.10;0.90;;;;;;;8.46;100.00;98755.97;5051521;28;20220;-81
2023/02/19 07:00:56;;;;;;;1.20;1.10;;;;;;;8.47;100.00;98764.75;5051910;28;20236;-79
2023/02/19 07:03:23;;;;;;;1.57;1.30;;;;;;;8.47;100.00;98756.84;5051763;28;20236;-80
2023/02/19 07:05:49;;;;;;;1.37;1.27;;;;;;;8.51;100.00;98764.50;5051812;28;20221;-80
2023/02/19 07:08:16;;;;;;;1.10;1.00;;;;;;;8.54;100.00;98758.22;5050732;28;20227;-81
2023/02/19 07:10:43;;;;;;;1.47;1.37;;;;;;;8.53;100.00;98777.59;5051488;28;20205;-82
2023/02/19 07:13:11;;;;;;;1.37;1.20;;;;;;;8.55;100.00;98776.59;5052378;28;20234;-81
2023/02/19 07:15:37;;;;;;;1.03;1.00;;;;;;;8.57;100.00;98776.53;5052945;28;20220;-81
2023/02/19 07:18:06;;;;;;;1.27;1.17;;;;;;;8.57;100.00;98784.44;5051966;28;20217;-79
2023/02/19 07:20:32;;;;;;;1.90;1.27;;;;;;;8.62;100.00;98785.88;5051787;28;20278;-77
2023/02/19 07:22:58;;;;;;;2.50;1.33;;;;;;;8.64;100.00;98789.28;5051739;28;20240;-81
2023/02/19 07:25:25;;;;;;;1.40;1.30;;;;;;;8.67;100.00;98791.78;5052142;28;20694;-82
2023/02/19 07:27:51;;;;;;;1.70;1.13;;;;;;;8.66;100.00;98800.63;5051501;28;20237;-81
2023/02/19 07:30:19;;;;;;;1.30;1.20;;;;;;;8.68;100.00;98789.97;5050531;28;20581;-80
2023/02/19 07:32:46;;;;;;;1.20;1.10;;;;;;;8.67;100.00;98796.19;5051183;28;20225;-81
2023/02/19 07:35:15;;;;;;;1.20;1.10;;;;;;;8.74;100.00;98802.84;5050341;28;20589;-81
2023/02/19 07:37:42;;;;;;;1.30;1.20;;;;;;;8.71;100.00;98809.16;5050556;28;20214;-80
2023/02/19 07:40:09;;;;;;;1.47;1.37;;;;;;;8.71;100.00;98813.56;5051046;28;20221;-82
2023/02/19 07:42:35;;;;;;;1.60;1.40;;;;;;;8.74;100.00;98813.38;5049732;28;20705;-82
2023/02/19 07:45:02;;;;;;;1.40;1.30;;;;;;;8.75;100.00;98812.47;5051384;28;20606;-79
2023/02/19 07:47:30;;;;;;;2.47;1.53;;;;;;;8.77;100.00;98814.09;5050146;28;20231;-82
2023/02/19 07:49:56;;;;;;;2.03;1.40;;;;;;;8.82;100.00;98816.50;5050867;28;20213;-81
2023/02/19 07:52:23;;;;;;;1.30;1.20;;;;;;;8.82;100.00;98821.78;5051043;28;20673;-82
2023/02/19 07:54:50;;;;;;;1.53;1.43;;;;;;;8.80;100.00;98820.97;5049561;28;20230;-82
2023/02/19 07:57:16;;;;;;;1.50;1.30;;;;;;;8.84;100.00;98822.53;5051078;28;20209;-82
2023/02/19 07:59:43;;;;;;;1.60;1.50;;;;;;;8.83;100.00;98813.78;5049493;28;20208;-83
2023/02/19 08:05:01;;;;;;;1.70;1.50;;;;;;;8.82;100.00;98803.31;5050961;28;20240;-80
2023/02/19 08:07:32;;;;;;;2.50;1.60;;;;;;;8.82;100.00;98798.88;5049141;28;20230;-80
2023/02/19 08:15:23;;;;;;;1.97;1.77;;;;;;;8.91;100.00;98793.16;5050708;28;20227;-80
2023/02/19 08:17:49;;;;;;;2.35;1.90;;;;;;;8.91;100.00;98805.47;5049066;28;20436;-79
2023/02/19 08:20:17;;;;;;;3.33;1.80;;;;;;;8.96;100.00;98804.31;5051837;28;20211;-80
2023/02/19 08:22:44;;;;;;;3.17;1.87;;;;;;;8.97;100.00;98811.28;5053427;28;20228;-80
2023/02/19 08:25:10;;;;;;;1.50;1.40;;;;;;;8.99;100.00;98812.03;5052598;28;20269;-80
2023/02/19 08:27:37;;;;;;;1.87;1.70;;;;;;;9.02;100.00;98814.53;5051433;28;20229;-80
2023/02/19 08:30:04;;;;;;;1.90;1.70;;;;;;;9.03;100.00;98832.06;5053042;28;20214;-78
2023/02/19 08:32:30;;;;;;;1.40;1.27;;;;;;;9.10;100.00;98827.31;5052709;28;20206;-78
2023/02/19 08:34:57;;;;;;;1.80;1.70;;;;;;;9.09;100.00;98831.75;5054573;28;20228;-79
2023/02/19 08:37:25;;;;;;;1.60;1.20;;;;;;;9.14;100.00;98834.13;5054008;28;20206;-80
2023/02/19 08:39:51;;;;;;;1.27;1.13;;;;;;;9.15;100.00;98835.81;5053246;28;20214;-80
2023/02/19 08:42:18;;;;;;;0.80;0.80;;;;;;;9.21;100.00;98825.81;5054307;28;20209;-79
2023/02/19 08:44:44;;;;;;;1.00;0.90;;;;;;;9.22;100.00;98816.09;5053030;28;20256;-80
2023/02/19 08:47:11;;;;;;;1.37;1.00;;;;;;;9.25;100.00;98839.69;5053885;28;20216;-79
2023/02/19 08:49:37;;;;;;;2.20;1.07;;;;;;;9.25;100.00;98842.34;5054126;28;20736;-78
2023/02/19 08:52:03;;;;;;;0.90;0.90;;;;;;;9.32;100.00;98841.06;5052928;28;20213;-77
2023/02/19 08:54:31;;;;;;;1.20;0.80;;;;;;;9.29;100.00;98842.09;5053897;28;20228;-81
2023/02/19 08:56:58;;;;;;;1.90;0.93;;;;;;;9.30;100.00;98840.31;5053958;28;20588;-81
2023/02/19 08:59:25;;;;;;;1.70;1.10;;;;;;;9.30;100.00;98845.59;5054335;28;20212;-82
2023/02/19 09:01:52;;;;;;;1.93;1.47;;;;;;;9.36;100.00;98851.38;5061310;28;20208;-79
2023/02/19 09:04:18;;;;;;;1.87;1.10;;;;;;;9.40;100.00;98857.34;5056473;28;20295;-79
2023/02/19 09:06:45;;;;;;;1.20;1.10;;;;;;;9.43;100.00;98846.63;5054222;28;20213;-80
2023/02/19 09:09:11;;;;;;;1.37;1.20;;;;;;;9.42;100.00;98860.78;5053873;28;20232;-79
2023/02/19 09:11:40;;;;;;;3.00;1.33;;;;;;;9.42;100.00;98852.84;5053724;28;20212;-79
2023/02/19 09:14:07;;;;;;;3.43;1.47;;;;;;;9.43;100.00;98854.56;5053869;28;20241;-81
2023/02/19 09:16:33;;;;;;;2.00;1.40;;;;;;;9.47;100.00;98848.16;5053754;28;20205;-80
2023/02/19 09:19:00;;;;;;;1.70;1.60;;;;;;;9.49;100.00;98870.91;5053668;28;20233;-80
2023/02/19 09:21:26;;;;;;;2.10;1.60;;;;;;;9.55;100.00;98864.47;5053773;28;20228;-81
2023/02/19 09:23:53;;;;;;;4.10;1.57;;;;;;;9.61;100.00;98872.03;5053085;28;20723;-80
2023/02/19 09:26:20;;;;;;;3.20;1.67;;;;;;;9.61;100.00;98869.41;5052728;28;20701;-81
2023/02/19 09:28:48;;;;;;;1.83;1.43;;;;;;;9.62;100.00;98877.22;5053327;28;20706;-81
2023/02/19 09:31:15;;;;;;;2.20;1.30;;;;;;;9.62;100.00;98884.31;5052746;28;20227;-79
2023/02/19 09:33:43;;;;;;;1.87;1.40;;;;;;;9.70;100.00;98892.66;5053354;28;20230;-79
2023/02/19 09:36:10;;;;;;;2.07;1.40;;;;;;;9.73;100.00;98892.50;5053281;28;20210;-79
2023/02/19 09:38:37;;;;;;;3.23;1.50;;;;;;;9.70;99.49;98879.47;5053150;28;20208;-79
2023/02/19 09:41:07;;;;;;;1.93;1.33;;;;;;;9.69;99.63;98886.53;5053452;28;20235;-78
2023/02/19 09:43:35;;;;;;;4.83;1.40;;;;;;;9.75;99.30;98875.66;5053063;28;20717;-80
2023/02/19 09:46:06;;;;;;;2.67;1.30;;;;;;;9.83;98.47;98884.00;5053183;28;20235;-79
2023/02/19 09:48:33;;;;;;;3.20;1.40;;;;;;;9.87;97.69;98880.28;5052699;28;20747;-78
2023/02/19 09:51:01;;;;;;;3.93;1.20;;;;;;;9.82;97.19;98873.50;5052927;28;20218;-80
2023/02/19 09:53:35;;;;;;;2.20;1.23;;;;;;;9.79;96.67;98886.91;5051666;28;20235;-79
2023/02/19 09:56:01;;;;;;;1.57;1.20;;;;;;;9.84;96.66;98896.25;5052542;28;20212;-80
2023/02/19 09:58:31;;;;;;;2.00;1.20;;;;;;;9.91;96.20;98887.06;5052690;28;20206;-80
2023/02/19 10:01:02;;;;;;;3.20;1.30;;;;;;;10.01;93.52;98882.13;5052627;28;20212;-78
2023/02/19 10:03:33;;;;;;;1.93;0.90;;;;;;;10.22;93.12;98883.63;5052596;28;20249;-78
2023/02/19 10:06:02;;;;;;;2.13;1.10;;;;;;;10.39;91.18;98867.69;5052891;28;20283;-78
2023/02/19 10:08:32;;;;;;;1.63;0.90;;;;;;;10.52;89.27;98863.41;5052638;28;20232;-78
2023/02/19 10:11:00;;;;;;;1.40;0.90;;;;;;;10.59;87.00;98870.03;5052615;28;20208;-78
2023/02/19 10:13:30;;;;;;;1.80;1.00;;;;;;;10.64;85.55;98857.41;5052680;28;20594;-81
2023/02/19 10:16:00;;;;;;;3.30;0.80;;;;;;;10.69;83.95;98855.31;5052438;28;20274;-81
2023/02/19 10:18:33;;;;;;;3.70;0.93;;;;;;;10.69;84.91;98866.75;5052210;28;20228;-79
2023/02/19 10:21:00;;;;;;;2.47;1.00;;;;;;;10.81;84.88;98870.47;5052634;28;20584;-78
2023/02/19 10:23:26;;;;;;;3.83;1.42;;;;;;;10.94;83.44;98867.03;5051787;28;20436;-78
2023/02/19 10:25:56;;;;;;;1.97;0.90;;;;;;;10.88;82.83;98871.84;5053241;28;20200;-87
2023/02/19 10:28:26;;;;;;;3.43;0.80;;;;;;;11.03;82.80;98885.03;5054760;28;20224;-81
2023/02/19 10:30:55;;;;;;;2.63;0.93;;;;;;;11.00;80.54;98876.41;5052040;28;20216;-81
2023/02/19 10:33:23;;;;;;;1.97;0.90;;;;;;;10.96;81.16;98896.03;5052081;28;20732;-81
2023/02/19 10:35:56;;;;;;;0.80;0.73;;;;;;;10.94;81.15;98897.94;5052117;28;20226;-81
2023/02/19 10:38:27;;;;;;;1.10;0.80;;;;;;;10.93;81.73;98906.78;5051914;28;20666;-81
2023/02/19 10:41:00;;;;;;;2.37;1.00;;;;;;;10.97;82.21;98908.31;5051970;28;20304;-81
2023/02/19 10:43:32;;;;;;;2.00;0.90;;;;;;;10.95;82.78;98918.16;5052253;28;20224;-80
2023/02/19 10:46:02;;;;;;;1.73;1.07;;;;;;;11.02;81.96;98922.13;5052089;28;20685;-80
2023/02/19 10:48:31;;;;;;;2.20;1.00;;;;;;;10.97;80.92;98906.53;5051756;28;20226;-80
2023/02/19 10:51:03;;;;;;;1.23;1.00;;;;;;;11.03;79.02;98907.97;5052095;28;20215;-80
2023/02/19 10:53:42;;;;;;;2.50;1.63;;;;;;;11.09;81.33;98919.06;5053255;28;20243;-78
2023/02/19 10:56:10;;;;;;;2.83;0.90;;;;;;;11.10;77.90;98909.31;5052824;28;20205;-81
2023/02/19 10:58:38;;;;;;;3.40;1.13;;;;;;;11.06;77.62;98902.50;5051873;28;20252;-88
2023/02/19 11:01:18;;;;;;;1.93;0.80;;;;;;;11.04;79.75;98920.25;5052003;28;20210;-81
2023/02/19 11:03:45;;;;;;;3.53;1.17;;;;;;;11.08;80.35;98927.06;5051665;28;20250;-80
2023/02/19 11:06:16;;;;;;;1.63;0.83;;;;;;;11.18;79.84;98923.78;5051417;28;20213;-80
2023/02/19 11:08:49;;;;;;;2.70;1.00;;;;;;;11.18;79.69;98918.50;5051815;28;20926;-83
2023/02/19 11:11:25;;;;;;;1.97;0.80;;;;;;;11.09;79.99;98920.81;5051823;28;20293;-82
2023/02/19 11:13:54;;;;;;;1.50;0.80;;;;;;;11.03;80.40;98923.84;5051775;28;20256;-82
2023/02/19 11:16:20;;;;;;;2.10;0.90;;;;;;;11.01;79.93;98925.72;5051525;28;20215;-81
2023/02/19 11:18:55;;;;;;;2.30;0.90;;;;;;;11.01;80.46;98926.56;5051659;28;20209;-83
2023/02/19 11:21:31;;;;;;;2.30;1.07;;;;;;;10.86;79.84;98916.03;5051838;28;20237;-81
2023/02/19 11:23:59;;;;;;;1.90;1.00;;;;;;;10.81;83.32;98933.94;5051926;28;20326;-82
2023/02/19 11:26:27;;;;;;;1.53;0.93;;;;;;;10.76;82.87;98931.56;5051449;28;20314;-81
2023/02/19 11:28:56;;;;;;;1.37;0.97;;;;;;;10.77;84.33;98937.72;5051546;28;20229;-86
2023/02/19 11:31:25;;;;;;;3.13;1.00;;;;;;;10.82;83.92;98925.09;5051585;28;20269;-82
2023/02/19 11:33:57;;;;;;;3.00;1.10;;;;;;;10.93;83.35;98930.59;5051541;28;20270;-79
2023/02/19 11:36:33;;;;;;;2.73;1.20;;;;;;;11.01;83.15;98917.78;5051083;28;20206;-79
2023/02/19 11:39:15;;;;;;;1.93;1.10;;;;;;;11.16;83.99;98924.81;5051301;28;20205;-80
2023/02/19 11:42:03;;;;;;;1.97;1.10;;;;;;;11.41;81.10;98909.19;5051221;28;20218;-79
2023/02/19 11:44:43;;;;;;;2.73;1.10;;;;;;;11.42;78.56;98905.56;5051555;28;20232;-80
2023/02/19 11:47:39;;;;;;;1.67;0.73;;;;;;;11.37;77.16;98908.50;5051147;28;20211;-80
2023/02/19 11:50:16;;;;;;;2.50;1.27;;;;;;;11.38;77.80;98919.97;5051400;28;20591;-79
2023/02/19 11:52:54;;;;;;;1.90;0.83;;;;;;;11.39;77.75;98921.66;5051863;28;20215;-82
2023/02/19 11:55:33;;;;;;;2.40;1.00;;;;;;;11.34;77.25;98923.72;5055773;28;20591;-84
2023/02/19 11:58:14;;;;;;;4.27;1.00;;;;;;;11.27;78.32;98927.69;5054958;28;20580;-78
2023/02/19 12:00:48;;;;;;;3.93;1.20;;;;;;;11.31;78.54;98937.16;5055254;28;20208;-80
2023/02/19 12:03:40;;;;;;;5.13;1.47;;;;;;;11.26;78.50;98941.84;5055240;28;20231;-79
2023/02/19 12:06:19;;;;;;;3.03;1.10;;;;;;;11.22;79.18;98945.63;5055110;28;20214;-77
2023/02/19 12:09:22;;;;;;;2.23;1.30;;;;;;;11.21;78.00;98928.91;5054919;28;20694;-81
2023/02/19 12:12:09;;;;;;;2.30;1.00;;;;;;;11.17;76.88;98918.56;5055106;28;20211;-78
2023/02/19 12:15:21;;;;;;;2.47;1.00;;;;;;;11.27;76.42;98906.50;5055113;28;20239;-78